Time;durP1;ratioP1;P1;durP2;ratioP2;P2;SDS_P1;SDS_P2;PMS_P1;PMS_P2;Temp;Humidity;BMP_temperature;BMP_pressure;BME280_temperature;BME280_humidity;BME280_pressure;Samples;Min_cycle;Max_cycle;Signal;HPM_P1;HPM_P2
2021/12/13 00:00:54;;;;;;;226.45;49.97;;;9.90;99.90;;;;;;5070760;28;20100;-59
2021/12/13 00:03:32;;;;;;;222.82;50.35;;;9.90;99.90;;;;;;5071852;28;20421;-59
2021/12/13 00:06:09;;;;;;;252.60;50.60;;;9.90;99.90;;;;;;5074098;28;20043;-57
2021/12/13 00:08:38;;;;;;;230.77;47.65;;;9.90;99.90;;;;;;5073472;28;20075;-59
2021/12/13 00:11:12;;;;;;;251.50;50.70;;;9.90;99.90;;;;;;5084516;27;20055;-58
2021/12/13 00:13:52;;;;;;;229.75;49.20;;;10.00;99.90;;;;;;5072323;28;20759;-59
2021/12/13 00:16:37;;;;;;;250.13;48.83;;;10.00;99.90;;;;;;5072585;28;20144;-59
2021/12/13 00:19:14;;;;;;;233.00;46.40;;;9.90;99.90;;;;;;5074313;28;20071;-59
2021/12/13 00:21:44;;;;;;;214.18;45.30;;;9.90;99.90;;;;;;5072915;28;20059;-59
2021/12/13 00:24:19;;;;;;;198.75;43.53;;;9.90;99.90;;;;;;5073496;28;20109;-58
2021/12/13 00:26:48;;;;;;;190.00;42.70;;;9.90;99.90;;;;;;5071815;28;20506;-59
2021/12/13 00:29:20;;;;;;;212.80;44.80;;;9.90;99.90;;;;;;5071096;28;21906;-59
2021/12/13 00:32:43;;;;;;;200.43;42.85;;;9.90;99.90;;;;;;5072761;28;20044;-58
2021/12/13 00:35:13;;;;;;;229.77;44.40;;;9.90;99.90;;;;;;4978829;28;20042;-58
2021/12/13 00:37:50;;;;;;;221.25;44.75;;;10.00;99.90;;;;;;4978179;28;20176;-58
2021/12/13 00:40:28;;;;;;;211.80;44.60;;;9.90;99.90;;;;;;5029595;28;20056;-59
2021/12/13 00:43:05;;;;;;;203.13;44.03;;;9.90;99.90;;;;;;5070659;28;20039;-59
2021/12/13 00:45:36;;;;;;;210.90;43.70;;;10.00;99.90;;;;;;5067275;28;20050;-59
2021/12/13 00:48:06;;;;;;;251.82;47.13;;;10.00;99.90;;;;;;5073159;28;20224;-58
2021/12/13 00:50:39;;;;;;;206.70;44.75;;;10.00;99.90;;;;;;5071232;28;20127;-58
2021/12/13 00:53:06;;;;;;;222.85;44.70;;;10.00;99.90;;;;;;5070916;28;20415;-59
2021/12/13 00:55:34;;;;;;;203.48;43.15;;;10.00;99.90;;;;;;5059957;28;20108;-58
2021/12/13 00:58:17;;;;;;;192.50;42.67;;;9.90;99.90;;;;;;5073895;28;22153;-59
2021/12/13 01:00:49;;;;;;;181.77;41.20;;;10.00;99.90;;;;;;5074983;28;20442;-58
2021/12/13 01:03:34;;;;;;;198.43;43.58;;;10.00;99.90;;;;;;5054335;28;20044;-58
2021/12/13 01:06:37;;;;;;;180.35;42.47;;;10.00;99.90;;;;;;5070837;28;20059;-57
2021/12/13 01:09:41;;;;;;;193.75;41.97;;;10.00;99.90;;;;;;5052128;28;20070;-57
2021/12/13 01:12:12;;;;;;;175.07;39.45;;;10.00;99.90;;;;;;5070662;28;20131;-58
2021/12/13 01:15:01;;;;;;;183.80;42.03;;;10.00;99.90;;;;;;5071128;28;21405;-58
2021/12/13 01:17:48;;;;;;;190.27;41.38;;;10.00;99.90;;;;;;5073101;28;20063;-58
2021/12/13 01:20:43;;;;;;;174.88;39.20;;;10.00;99.90;;;;;;5071604;28;21072;-58
2021/12/13 01:23:17;;;;;;;162.25;38.75;;;10.00;99.90;;;;;;5073927;28;20044;-58
2021/12/13 01:25:59;;;;;;;161.60;37.05;;;10.00;99.90;;;;;;5053900;28;20039;-58
2021/12/13 01:28:33;;;;;;;175.63;38.35;;;9.90;99.90;;;;;;5058206;28;20146;-58
2021/12/13 01:31:03;;;;;;;196.32;39.17;;;10.00;99.90;;;;;;5071891;28;20128;-58
2021/12/13 01:33:31;;;;;;;167.18;39.38;;;10.00;99.90;;;;;;5069559;28;20455;-58
2021/12/13 01:36:00;;;;;;;162.93;37.80;;;10.00;99.90;;;;;;5072526;28;20471;-58
2021/12/13 01:38:44;;;;;;;153.10;38.65;;;10.00;99.90;;;;;;5070044;28;20044;-58
2021/12/13 01:41:45;;;;;;;164.50;37.88;;;9.90;99.90;;;;;;5074246;28;20399;-58
2021/12/13 01:44:24;;;;;;;150.65;37.40;;;10.00;99.90;;;;;;5074824;28;20506;-58
2021/12/13 01:47:01;;;;;;;155.70;39.05;;;9.90;99.90;;;;;;5072353;28;20039;-58
2021/12/13 01:49:38;;;;;;;153.68;39.15;;;9.90;99.90;;;;;;5074329;28;20050;-58
2021/12/13 01:52:16;;;;;;;134.80;37.67;;;10.00;99.90;;;;;;5071831;28;20444;-57
2021/12/13 01:54:43;;;;;;;152.48;39.10;;;10.00;99.90;;;;;;5071678;28;20688;-57
2021/12/13 01:57:24;;;;;;;126.40;38.15;;;9.90;99.90;;;;;;5072653;28;20047;-58
2021/12/13 02:00:08;;;;;;;135.75;39.45;;;9.90;99.90;;;;;;5074933;28;20848;-58
2021/12/13 02:02:41;;;;;;;116.10;37.75;;;10.00;99.90;;;;;;5074608;28;20036;-58
2021/12/13 02:05:22;;;;;;;122.57;36.97;;;10.00;99.90;;;;;;5073113;28;20413;-58
2021/12/13 02:08:11;;;;;;;117.05;39.00;;;10.00;99.90;;;;;;5074161;28;20048;-58
2021/12/13 02:10:50;;;;;;;112.60;36.38;;;9.90;99.90;;;;;;5065436;28;20051;-58
2021/12/13 02:13:22;;;;;;;112.32;36.40;;;9.90;99.90;;;;;;5074756;28;20460;-58
2021/12/13 02:18:40;;;;;;;93.65;33.17;;;9.90;99.90;;;;;;5073537;28;20078;-58
2021/12/13 02:21:17;;;;;;;94.43;32.22;;;9.90;99.90;;;;;;5078591;28;20746;-58
2021/12/13 02:23:46;;;;;;;90.40;31.75;;;9.80;99.90;;;;;;5053917;28;20036;-58
2021/12/13 02:26:13;;;;;;;73.55;29.42;;;9.80;99.90;;;;;;5076388;28;20067;-58
2021/12/13 02:28:43;;;;;;;81.22;31.30;;;9.70;99.90;;;;;;5092424;28;20054;-58
2021/12/13 02:31:22;;;;;;;81.00;31.13;;;9.70;99.90;;;;;;5091497;28;20039;-58
2021/12/13 02:33:55;;;;;;;76.50;30.88;;;9.70;99.90;;;;;;5105166;28;20114;-58
2021/12/13 02:36:30;;;;;;;74.95;29.77;;;9.60;99.90;;;;;;5108642;28;20032;-58
2021/12/13 02:39:00;;;;;;;75.78;29.10;;;9.60;99.90;;;;;;5108502;28;20035;-58
2021/12/13 02:41:28;;;;;;;66.13;27.92;;;9.60;99.90;;;;;;5113276;28;20047;-58
2021/12/13 02:44:01;;;;;;;73.05;28.10;;;9.60;99.90;;;;;;5109837;28;20027;-58
2021/12/13 02:46:27;;;;;;;72.70;28.67;;;9.70;99.90;;;;;;5111184;28;20043;-58
2021/12/13 02:49:03;;;;;;;69.38;26.42;;;9.60;99.90;;;;;;5110454;28;20401;-58
2021/12/13 02:51:47;;;;;;;60.42;24.40;;;9.60;99.90;;;;;;5112114;28;20552;-58
2021/12/13 02:54:21;;;;;;;55.65;22.02;;;9.70;99.90;;;;;;5113258;28;20114;-58
2021/12/13 02:57:07;;;;;;;50.05;20.33;;;9.60;99.90;;;;;;5099427;28;20099;-58
2021/12/13 02:59:36;;;;;;;51.92;21.38;;;9.60;99.90;;;;;;5105644;28;20165;-58
2021/12/13 03:02:09;;;;;;;46.30;19.33;;;9.60;99.90;;;;;;5091207;28;20036;-58
2021/12/13 03:04:35;;;;;;;44.65;18.10;;;9.60;99.90;;;;;;5111483;28;20027;-58
2021/12/13 03:07:21;;;;;;;43.55;18.85;;;9.60;99.90;;;;;;5108213;28;20047;-58
2021/12/13 03:09:52;;;;;;;43.15;17.27;;;9.60;99.90;;;;;;5111358;28;20035;-58
2021/12/13 03:12:20;;;;;;;42.70;16.27;;;9.50;99.90;;;;;;5112529;28;20043;-58
2021/12/13 03:14:50;;;;;;;38.97;15.18;;;9.50;99.90;;;;;;5090423;28;20032;-58
2021/12/13 03:17:21;;;;;;;50.15;16.30;;;9.50;99.90;;;;;;5091827;28;20510;-58
2021/12/13 03:19:53;;;;;;;38.13;14.63;;;9.50;99.90;;;;;;5109649;28;20047;-58
2021/12/13 03:22:46;;;;;;;40.60;15.85;;;9.50;99.90;;;;;;5112188;28;20544;-58
2021/12/13 03:25:34;;;;;;;37.38;14.93;;;9.50;99.90;;;;;;5110243;28;20478;-58
2021/12/13 03:28:33;;;;;;;36.58;15.25;;;9.50;99.90;;;;;;5110069;28;20395;-58
2021/12/13 03:31:03;;;;;;;38.88;15.15;;;9.40;99.90;;;;;;5105234;28;20084;-58
2021/12/13 03:33:35;;;;;;;44.53;16.42;;;9.40;99.90;;;;;;5109690;28;20544;-58
2021/12/13 03:36:06;;;;;;;42.53;15.65;;;9.40;99.90;;;;;;5109743;28;20043;-58
2021/12/13 03:38:39;;;;;;;42.33;15.93;;;9.40;99.90;;;;;;5112183;28;20036;-58
2021/12/13 03:41:10;;;;;;;45.78;16.95;;;9.40;99.90;;;;;;5107509;28;20045;-58
2021/12/13 03:43:45;;;;;;;47.88;18.15;;;9.30;99.90;;;;;;5109929;28;20035;-59
2021/12/13 03:46:13;;;;;;;44.08;17.88;;;9.30;99.90;;;;;;5105004;28;20036;-58
2021/12/13 03:48:41;;;;;;;56.30;20.67;;;9.30;99.90;;;;;;5109039;28;20441;-58
2021/12/13 03:51:15;;;;;;;45.25;20.00;;;9.20;99.90;;;;;;5108975;28;20084;-58
2021/12/13 03:53:45;;;;;;;51.75;21.77;;;9.20;99.90;;;;;;5110828;28;20505;-58
2021/12/13 03:56:14;;;;;;;51.83;21.52;;;9.20;99.90;;;;;;5105423;28;20043;-58
2021/12/13 03:58:54;;;;;;;54.17;22.45;;;9.20;99.90;;;;;;5093548;28;20047;-58
2021/12/13 04:01:41;;;;;;;52.53;20.88;;;9.20;99.90;;;;;;5105002;28;20093;-58
2021/12/13 04:04:12;;;;;;;50.63;22.67;;;9.10;99.90;;;;;;5111124;28;20035;-58
2021/12/13 04:06:49;;;;;;;47.25;20.17;;;9.10;99.90;;;;;;5108932;28;20043;-58
2021/12/13 04:09:16;;;;;;;47.08;19.35;;;9.10;99.90;;;;;;5111303;28;20031;-58
2021/12/13 04:11:44;;;;;;;55.17;19.45;;;9.10;99.90;;;;;;5110011;28;20061;-58
2021/12/13 04:14:16;;;;;;;44.97;18.85;;;9.10;99.90;;;;;;5110278;28;20557;-58
2021/12/13 04:17:04;;;;;;;49.78;18.75;;;9.20;99.90;;;;;;5108010;28;20505;-58
2021/12/13 04:19:57;;;;;;;44.05;18.35;;;9.20;99.90;;;;;;5111156;28;20035;-58
2021/12/13 04:22:27;;;;;;;33.65;15.15;;;9.20;99.90;;;;;;5106709;28;20471;-58
2021/12/13 04:25:08;;;;;;;34.97;15.90;;;9.20;99.90;;;;;;5111098;28;20031;-58
2021/12/13 04:27:55;;;;;;;40.08;15.52;;;9.20;99.90;;;;;;5109575;28;20038;-58
2021/12/13 04:30:21;;;;;;;39.50;16.73;;;9.20;99.90;;;;;;5109098;28;20032;-58
2021/12/13 04:32:51;;;;;;;32.75;14.98;;;9.20;99.90;;;;;;5106844;28;20028;-58
2021/12/13 04:35:17;;;;;;;31.70;14.75;;;9.20;99.90;;;;;;5106683;28;20028;-58
2021/12/13 04:37:48;;;;;;;36.22;14.80;;;9.20;99.90;;;;;;5092453;28;20039;-58
2021/12/13 04:40:22;;;;;;;32.92;13.85;;;9.20;99.90;;;;;;5109686;28;20097;-58
2021/12/13 04:43:15;;;;;;;31.55;13.57;;;9.20;99.90;;;;;;5109645;28;20046;-58
2021/12/13 04:45:48;;;;;;;32.85;14.00;;;9.20;99.90;;;;;;5108249;28;20104;-58
2021/12/13 04:48:18;;;;;;;26.52;12.18;;;9.20;99.90;;;;;;5107302;28;20040;-58
2021/12/13 04:51:09;;;;;;;31.25;12.50;;;9.20;99.90;;;;;;5108158;28;20040;-58
2021/12/13 04:53:46;;;;;;;26.30;11.68;;;9.20;99.90;;;;;;5111177;28;20036;-58
2021/12/13 04:56:16;;;;;;;24.58;11.60;;;9.20;99.90;;;;;;5109232;28;20040;-58
2021/12/13 04:58:45;;;;;;;25.25;11.77;;;9.20;99.90;;;;;;5107123;28;20056;-58
2021/12/13 05:01:13;;;;;;;27.55;11.77;;;9.10;99.90;;;;;;5103440;28;20126;-58
2021/12/13 05:03:45;;;;;;;27.55;11.68;;;9.20;99.90;;;;;;5108394;28;20032;-58
2021/12/13 05:06:19;;;;;;;29.38;13.60;;;9.20;99.90;;;;;;5106494;28;20036;-58
2021/12/13 05:08:48;;;;;;;25.83;12.55;;;9.20;99.90;;;;;;5110971;28;20062;-57
2021/12/13 05:11:14;;;;;;;28.83;12.98;;;9.20;99.90;;;;;;5085019;28;20043;-58
2021/12/13 05:13:51;;;;;;;28.17;12.85;;;9.20;99.90;;;;;;5108518;28;20411;-58
2021/12/13 05:16:37;;;;;;;26.95;13.60;;;9.10;99.90;;;;;;5106325;28;20035;-58
2021/12/13 05:19:06;;;;;;;31.52;15.43;;;9.20;99.90;;;;;;5094805;28;20035;-58
2021/12/13 05:21:41;;;;;;;33.70;15.52;;;9.20;99.90;;;;;;5111827;28;20184;-58
2021/12/13 05:24:26;;;;;;;33.22;15.43;;;9.20;99.90;;;;;;5113729;28;20028;-58
2021/12/13 05:26:57;;;;;;;29.48;14.90;;;9.20;99.90;;;;;;5111928;28;20052;-57
2021/12/13 05:29:25;;;;;;;28.02;15.25;;;9.10;99.90;;;;;;5108524;28;20051;-58
2021/12/13 05:31:53;;;;;;;29.27;15.18;;;9.10;99.90;;;;;;5091364;28;20046;-58
2021/12/13 05:34:20;;;;;;;33.28;16.95;;;9.10;99.90;;;;;;5114316;28;20478;-58
2021/12/13 05:36:56;;;;;;;34.97;17.52;;;9.20;99.90;;;;;;5109130;28;20050;-58
2021/12/13 05:39:22;;;;;;;37.08;16.55;;;9.20;99.90;;;;;;5096130;28;20115;-58
2021/12/13 05:41:55;;;;;;;33.53;18.60;;;9.20;99.90;;;;;;5094231;28;20055;-58
2021/12/13 05:44:34;;;;;;;33.55;17.50;;;9.20;99.90;;;;;;5111691;28;20039;-58
2021/12/13 05:47:06;;;;;;;35.15;18.35;;;9.20;99.90;;;;;;5104435;28;22004;-58
2021/12/13 05:49:40;;;;;;;36.33;18.42;;;9.20;99.90;;;;;;5114440;28;20042;-58
2021/12/13 05:52:13;;;;;;;;;;;9.20;99.90;;;;;;5110075;28;20040;-58
2021/12/13 05:54:45;;;;;;;34.92;19.73;;;9.20;99.90;;;;;;5112699;28;19915;-58
2021/12/13 05:57:17;;;;;;;38.80;19.05;;;9.20;99.90;;;;;;5105741;28;20107;-58
2021/12/13 05:59:58;;;;;;;37.45;19.20;;;9.30;99.90;;;;;;5109639;28;20489;-58
2021/12/13 06:03:02;;;;;;;33.92;19.77;;;9.20;99.90;;;;;;5105307;28;20050;-58
2021/12/13 06:05:51;;;;;;;43.13;22.27;;;9.20;99.90;;;;;;5097575;28;20039;-58
2021/12/13 06:08:25;;;;;;;38.25;21.63;;;9.20;99.90;;;;;;5092641;28;20047;-58
2021/12/13 06:11:02;;;;;;;;;;;9.20;99.90;;;;;;5114598;28;20047;-58
2021/12/13 06:13:43;;;;;;;41.15;22.52;;;9.10;99.90;;;;;;5106380;28;20289;-57
2021/12/13 06:16:24;;;;;;;40.58;21.85;;;9.10;99.90;;;;;;5113326;28;20048;-58
2021/12/13 06:19:22;;;;;;;43.05;24.50;;;9.10;99.90;;;;;;5100342;28;20036;-58
2021/12/13 06:22:11;;;;;;;42.15;23.90;;;9.20;99.90;;;;;;5113329;28;20042;-58
2021/12/13 06:24:43;;;;;;;48.13;24.70;;;9.20;99.90;;;;;;5109615;28;20097;-58
2021/12/13 06:27:29;;;;;;;41.10;24.17;;;9.20;99.90;;;;;;5113604;28;20032;-58
2021/12/13 06:30:02;;;;;;;41.33;23.98;;;9.20;99.90;;;;;;5104916;28;20123;-58
2021/12/13 06:32:41;;;;;;;44.47;25.85;;;9.20;99.90;;;;;;5110916;28;20047;-58
2021/12/13 06:35:32;;;;;;;47.00;26.77;;;9.20;99.90;;;;;;5110618;28;20067;-58
2021/12/13 06:38:19;;;;;;;48.13;26.45;;;9.20;99.90;;;;;;5113392;28;20400;-58
2021/12/13 06:40:52;;;;;;;46.45;27.55;;;9.20;99.90;;;;;;5112656;28;20063;-58
2021/12/13 06:43:42;;;;;;;51.83;29.15;;;9.10;99.90;;;;;;5107301;28;20459;-58
2021/12/13 06:46:23;;;;;;;50.15;28.25;;;9.10;99.90;;;;;;5113320;28;20093;-59
2021/12/13 06:49:07;;;;;;;47.83;27.58;;;9.10;99.90;;;;;;5107548;28;20035;-57
2021/12/13 06:51:51;;;;;;;45.75;27.70;;;9.10;99.90;;;;;;5108024;28;20112;-58
2021/12/13 06:54:26;;;;;;;48.35;27.40;;;9.10;99.90;;;;;;5107510;28;20062;-58
2021/12/13 06:57:05;;;;;;;47.67;28.17;;;9.20;99.90;;;;;;5113100;28;20092;-58
2021/12/13 06:59:34;;;;;;;51.22;28.88;;;9.20;99.90;;;;;;5090673;28;20100;-58
2021/12/13 07:02:13;;;;;;;49.67;28.27;;;9.20;99.90;;;;;;5110505;28;20510;-59
2021/12/13 07:05:08;;;;;;;47.90;27.85;;;9.20;99.90;;;;;;5106596;28;20047;-58
2021/12/13 07:07:39;;;;;;;45.78;27.17;;;9.20;99.90;;;;;;5112613;28;20032;-58
2021/12/13 07:10:14;;;;;;;44.30;26.48;;;9.30;99.90;;;;;;5109400;28;20028;-58
2021/12/13 07:13:21;;;;;;;46.38;27.73;;;9.20;99.90;;;;;;5111054;28;20112;-58
2021/12/13 07:15:49;;;;;;;49.10;28.40;;;9.20;99.90;;;;;;5029764;28;20455;-58
2021/12/13 07:18:28;;;;;;;46.20;26.80;;;9.20;99.90;;;;;;5090316;28;20067;-57
2021/12/13 07:21:13;;;;;;;45.53;27.15;;;9.20;99.90;;;;;;5093111;28;20036;-57
2021/12/13 07:23:56;;;;;;;42.33;25.92;;;9.20;99.90;;;;;;5109284;28;20180;-58
2021/12/13 07:26:53;;;;;;;46.28;28.15;;;9.20;99.90;;;;;;5112307;28;20062;-58
2021/12/13 07:29:27;;;;;;;43.22;26.60;;;9.20;99.90;;;;;;5101370;28;20046;-59
2021/12/13 07:32:16;;;;;;;46.08;26.67;;;9.20;99.90;;;;;;5111061;28;20035;-60
2021/12/13 07:35:09;;;;;;;42.08;26.80;;;9.20;99.90;;;;;;5091571;28;20067;-57
2021/12/13 07:37:46;;;;;;;43.25;27.90;;;9.20;99.90;;;;;;5111374;28;20086;-57
2021/12/13 07:40:25;;;;;;;38.10;25.02;;;9.20;99.90;;;;;;5110239;28;20047;-57
2021/12/13 07:42:51;;;;;;;44.67;27.27;;;9.10;99.90;;;;;;5109247;28;20126;-57
2021/12/13 07:45:32;;;;;;;46.47;27.00;;;9.20;99.90;;;;;;5110052;28;20078;-57
2021/12/13 07:48:03;;;;;;;45.80;26.05;;;9.10;99.90;;;;;;5108849;28;20039;-57
2021/12/13 07:50:29;;;;;;;40.75;26.52;;;9.10;99.90;;;;;;5097872;28;20047;-57
2021/12/13 07:52:59;;;;;;;43.53;26.58;;;9.10;99.90;;;;;;5109604;28;20162;-56
2021/12/13 07:55:30;;;;;;;44.80;26.42;;;9.10;99.90;;;;;;5106721;28;20067;-57
2021/12/13 07:57:58;;;;;;;49.95;26.13;;;9.20;99.90;;;;;;5106132;28;20032;-57
2021/12/13 08:00:30;;;;;;;44.35;26.70;;;9.10;99.90;;;;;;5070222;28;20055;-57
2021/12/13 08:02:57;;;;;;;42.03;25.52;;;9.10;99.90;;;;;;5064756;28;20032;-57
2021/12/13 08:05:30;;;;;;;41.03;25.15;;;9.10;99.90;;;;;;5063004;28;21974;-58
2021/12/13 08:08:00;;;;;;;43.20;24.98;;;9.10;99.90;;;;;;5061859;28;20039;-57
2021/12/13 08:10:40;;;;;;;39.95;24.98;;;9.10;99.90;;;;;;5064676;28;20885;-57
2021/12/13 08:13:17;;;;;;;42.10;24.08;;;9.10;99.90;;;;;;5063112;28;20055;-57
2021/12/13 08:15:49;;;;;;;42.20;24.05;;;9.20;99.90;;;;;;5067570;28;20617;-57
2021/12/13 08:18:30;;;;;;;38.70;23.50;;;9.10;99.90;;;;;;5062548;28;20040;-57
2021/12/13 08:21:21;;;;;;;41.67;23.45;;;9.10;99.90;;;;;;5065882;28;20031;-57
2021/12/13 08:24:03;;;;;;;37.95;23.35;;;9.10;99.90;;;;;;5064299;28;20524;-58
2021/12/13 08:26:38;;;;;;;41.13;24.30;;;9.10;99.90;;;;;;5063966;28;20590;-58
2021/12/13 08:29:23;;;;;;;41.38;24.42;;;9.10;99.90;;;;;;5050646;28;22303;-58
2021/12/13 08:31:53;;;;;;;38.33;23.83;;;9.10;99.90;;;;;;5067856;28;20120;-57
2021/12/13 08:34:35;;;;;;;38.72;24.00;;;9.10;99.90;;;;;;5064139;28;20092;-58
2021/12/13 08:37:31;;;;;;;37.78;24.85;;;9.10;99.90;;;;;;5048335;28;20071;-58
2021/12/13 08:40:17;;;;;;;38.55;23.38;;;9.10;99.90;;;;;;5062753;28;20052;-59
2021/12/13 08:42:45;;;;;;;38.70;24.08;;;9.10;99.90;;;;;;5048438;28;20131;-57
2021/12/13 08:45:32;;;;;;;40.10;23.33;;;9.10;99.90;;;;;;5062953;28;20115;-58
2021/12/13 08:48:15;;;;;;;36.10;23.15;;;9.20;99.90;;;;;;5064076;28;20112;-58
2021/12/13 08:50:49;;;;;;;40.63;23.23;;;9.20;99.90;;;;;;5082551;27;20040;-58
2021/12/13 08:53:29;;;;;;;43.05;24.58;;;9.20;99.90;;;;;;5068066;28;20286;-58
2021/12/13 08:56:20;;;;;;;38.63;23.55;;;9.20;99.90;;;;;;5070153;28;20040;-59
2021/12/13 08:59:10;;;;;;;38.33;23.23;;;9.20;99.90;;;;;;5069420;28;20125;-58
2021/12/13 09:01:49;;;;;;;37.70;22.98;;;9.20;99.90;;;;;;5082680;27;20083;-59
2021/12/13 09:04:25;;;;;;;38.95;23.23;;;9.20;99.90;;;;;;5070505;28;20036;-59
2021/12/13 09:06:56;;;;;;;41.58;25.15;;;9.20;99.90;;;;;;5069652;28;20032;-59
2021/12/13 09:09:22;;;;;;;39.08;23.08;;;9.20;99.90;;;;;;5067527;28;20076;-58
2021/12/13 09:11:59;;;;;;;41.60;25.15;;;9.20;99.90;;;;;;5069598;28;20439;-59
2021/12/13 09:14:28;;;;;;;41.17;23.92;;;9.20;99.90;;;;;;5056763;28;20546;-58
2021/12/13 09:17:21;;;;;;;42.92;25.08;;;9.30;99.90;;;;;;5070136;28;20126;-58
2021/12/13 09:19:59;;;;;;;40.70;23.60;;;9.20;99.90;;;;;;5068208;28;20058;-58
2021/12/13 09:22:31;;;;;;;40.50;24.02;;;9.20;99.90;;;;;;5067466;28;20079;-59
2021/12/13 09:25:11;;;;;;;43.40;23.95;;;9.30;99.90;;;;;;5072270;28;20046;-57
2021/12/13 09:27:45;;;;;;;41.67;23.15;;;9.30;99.90;;;;;;5066492;28;20102;-58
2021/12/13 09:30:46;;;;;;;41.85;24.65;;;9.30;99.90;;;;;;5068579;28;20382;-58
2021/12/13 09:33:23;;;;;;;44.22;24.70;;;9.30;99.90;;;;;;5049499;28;22092;-58
2021/12/13 09:35:52;;;;;;;46.42;24.20;;;9.30;99.90;;;;;;5069854;28;20040;-58
2021/12/13 09:38:17;;;;;;;39.55;22.85;;;9.30;99.90;;;;;;5067149;28;20047;-59
2021/12/13 09:40:45;;;;;;;40.03;23.65;;;9.30;99.90;;;;;;5066323;28;20075;-59
2021/12/13 09:43:12;;;;;;;42.78;22.92;;;9.30;99.90;;;;;;5067907;28;20032;-59
2021/12/13 09:45:48;;;;;;;39.72;23.30;;;9.30;99.90;;;;;;5047955;28;20035;-59
2021/12/13 09:48:19;;;;;;;45.65;23.30;;;9.30;99.90;;;;;;5067403;28;20024;-59
2021/12/13 09:50:49;;;;;;;44.50;24.20;;;9.30;99.90;;;;;;5068557;28;20035;-59
2021/12/13 09:53:15;;;;;;;46.55;25.48;;;9.30;99.90;;;;;;5066318;28;20047;-58
2021/12/13 09:55:47;;;;;;;40.28;23.42;;;9.30;99.90;;;;;;5070215;28;20554;-58
2021/12/13 09:58:27;;;;;;;42.35;22.52;;;9.30;99.90;;;;;;5066481;28;20040;-58
2021/12/13 10:00:56;;;;;;;39.63;22.83;;;9.30;99.90;;;;;;5068382;28;20044;-59
2021/12/13 10:03:31;;;;;;;40.30;23.58;;;9.30;99.90;;;;;;5068083;28;20038;-58
2021/12/13 10:06:04;;;;;;;40.25;23.70;;;9.30;99.90;;;;;;5068139;28;20036;-59
2021/12/13 10:09:05;;;;;;;44.67;23.63;;;9.30;99.90;;;;;;5063133;28;20059;-59
2021/12/13 10:11:41;;;;;;;39.70;21.98;;;9.30;99.90;;;;;;5050073;28;20104;-58
2021/12/13 10:14:10;;;;;;;36.83;20.45;;;9.30;99.90;;;;;;5066716;28;20142;-59
2021/12/13 10:16:39;;;;;;;35.53;20.38;;;9.40;99.90;;;;;;5079915;27;20051;-58
2021/12/13 10:19:10;;;;;;;39.55;21.40;;;9.40;99.90;;;;;;5067251;28;20101;-58
2021/12/13 10:21:40;;;;;;;38.10;20.45;;;9.40;99.90;;;;;;5048054;28;20071;-58
2021/12/13 10:24:17;;;;;;;40.42;21.42;;;9.40;99.90;;;;;;5070623;28;20437;-59
2021/12/13 10:26:45;;;;;;;34.75;19.35;;;9.40;99.90;;;;;;5067940;28;20032;-58
2021/12/13 10:29:14;;;;;;;32.78;19.02;;;9.50;99.90;;;;;;5062434;28;20048;-58
2021/12/13 10:31:50;;;;;;;32.35;19.95;;;9.40;99.90;;;;;;5063382;28;20043;-59
2021/12/13 10:34:20;;;;;;;33.78;20.13;;;9.50;99.90;;;;;;5065893;28;20409;-58
2021/12/13 10:36:53;;;;;;;37.38;19.98;;;9.50;99.90;;;;;;5066155;28;20144;-58
2021/12/13 10:39:27;;;;;;;34.23;19.73;;;9.50;99.90;;;;;;5070002;28;20047;-58
2021/12/13 10:41:56;;;;;;;35.00;20.00;;;9.50;99.90;;;;;;5065852;28;20052;-58
2021/12/13 10:44:28;;;;;;;32.92;19.60;;;9.50;99.90;;;;;;5070389;28;20040;-59
2021/12/13 10:47:07;;;;;;;36.65;19.88;;;9.50;99.90;;;;;;5064279;28;20044;-58
2021/12/13 10:49:37;;;;;;;32.03;17.80;;;9.50;99.90;;;;;;5063256;28;20040;-58
2021/12/13 10:52:15;;;;;;;31.73;18.75;;;9.50;99.90;;;;;;5065534;28;20047;-59
2021/12/13 10:54:44;;;;;;;34.22;19.58;;;9.50;99.90;;;;;;5088196;28;20044;-58
2021/12/13 10:57:16;;;;;;;34.80;19.95;;;9.60;99.90;;;;;;5100070;28;20032;-59
2021/12/13 10:59:44;;;;;;;35.88;19.30;;;9.50;99.90;;;;;;5071837;28;20040;-58
2021/12/13 11:02:16;;;;;;;33.78;18.95;;;9.50;99.90;;;;;;5087708;28;20051;-58
2021/12/13 11:04:48;;;;;;;34.55;19.10;;;9.50;99.90;;;;;;5099703;28;20036;-56
2021/12/13 11:07:14;;;;;;;34.70;19.88;;;9.60;99.90;;;;;;5102251;28;20043;-57
2021/12/13 11:09:42;;;;;;;35.10;18.83;;;9.60;99.90;;;;;;5098550;28;20073;-57
2021/12/13 11:12:13;;;;;;;32.88;19.38;;;9.60;99.90;;;;;;5101769;28;20383;-57
2021/12/13 11:14:42;;;;;;;34.28;20.50;;;9.60;99.90;;;;;;5106437;27;20148;-56
2021/12/13 11:17:11;;;;;;;41.13;20.90;;;9.60;99.90;;;;;;5102005;28;20031;-56
2021/12/13 11:19:40;;;;;;;39.03;20.08;;;9.60;99.90;;;;;;5097769;28;20110;-57
2021/12/13 11:22:10;;;;;;;35.28;19.13;;;9.60;99.90;;;;;;5102628;28;20031;-57
2021/12/13 11:24:39;;;;;;;35.58;20.23;;;9.60;99.90;;;;;;5101398;28;20658;-57
2021/12/13 11:27:10;;;;;;;35.83;20.60;;;9.60;99.90;;;;;;5102322;28;20032;-57
2021/12/13 11:29:41;;;;;;;36.72;19.30;;;9.70;99.90;;;;;;5099736;28;20031;-57
2021/12/13 11:32:47;;;;;;;32.40;20.08;;;9.60;99.90;;;;;;5094418;28;20047;-57
2021/12/13 11:35:13;;;;;;;34.60;19.10;;;9.70;99.90;;;;;;5094114;28;20394;-57
2021/12/13 11:37:59;;;;;;;35.42;20.92;;;9.70;99.90;;;;;;5066285;28;20039;-57
2021/12/13 11:40:58;;;;;;;35.08;19.95;;;9.70;99.90;;;;;;5091696;27;20047;-57
2021/12/13 11:44:18;;;;;;;34.33;18.77;;;9.70;99.90;;;;;;5099128;28;20097;-57
2021/12/13 11:47:11;;;;;;;35.63;20.40;;;9.70;99.90;;;;;;5019193;28;20037;-57
2021/12/13 11:49:59;;;;;;;32.72;18.85;;;9.70;99.90;;;;;;5016338;28;20037;-57
2021/12/13 11:52:43;;;;;;;35.00;19.58;;;9.80;99.90;;;;;;5066776;28;20694;-57
2021/12/13 11:55:46;;;;;;;33.38;19.25;;;9.80;99.90;;;;;;5093291;28;20042;-59
2021/12/13 11:58:39;;;;;;;34.03;19.65;;;9.80;99.90;;;;;;5092874;27;20055;-57
2021/12/13 12:01:43;;;;;;;31.10;19.55;;;9.80;99.90;;;;;;5075088;28;20457;-58
2021/12/13 12:04:46;;;;;;;33.63;19.40;;;9.80;99.90;;;;;;5065388;28;20395;-58
2021/12/13 12:07:33;;;;;;;34.00;18.65;;;9.70;99.90;;;;;;5064505;28;20594;-57
2021/12/13 12:10:16;;;;;;;38.42;20.15;;;9.80;99.90;;;;;;5064492;28;20454;-58
2021/12/13 12:13:15;;;;;;;33.30;19.90;;;9.80;99.90;;;;;;5065434;28;20296;-57
2021/12/13 12:15:44;;;;;;;33.67;20.05;;;9.80;99.90;;;;;;5067386;28;20078;-59
2021/12/13 12:18:21;;;;;;;33.38;20.17;;;9.80;99.90;;;;;;5044770;28;20142;-58
2021/12/13 12:20:50;;;;;;;33.88;20.27;;;9.80;99.90;;;;;;5061131;28;20131;-56
2021/12/13 12:23:29;;;;;;;30.77;17.83;;;9.90;99.90;;;;;;5063757;28;20496;-57
2021/12/13 12:25:58;;;;;;;37.63;20.70;;;9.90;99.90;;;;;;5065195;28;20067;-57
2021/12/13 12:28:25;;;;;;;33.10;19.67;;;9.90;99.90;;;;;;5047186;28;20036;-57
2021/12/13 12:30:55;;;;;;;31.05;18.30;;;9.90;99.90;;;;;;5063823;28;20036;-56
2021/12/13 12:33:41;;;;;;;32.28;18.08;;;10.00;99.90;;;;;;5061612;28;20614;-56
2021/12/13 12:36:20;;;;;;;32.28;18.73;;;10.00;99.90;;;;;;5062843;28;20189;-57
2021/12/13 12:39:04;;;;;;;30.30;17.67;;;10.00;99.90;;;;;;5088830;28;20039;-57
2021/12/13 12:41:38;;;;;;;30.88;17.92;;;10.00;99.90;;;;;;5096302;28;20035;-57
2021/12/13 12:44:04;;;;;;;;;;;10.00;99.90;;;;;;5089980;28;20044;-58
2021/12/13 12:46:40;;;;;;;30.40;17.23;;;10.00;99.90;;;;;;5108505;28;19916;-57
2021/12/13 12:49:14;;;;;;;30.83;17.80;;;10.00;99.90;;;;;;5108448;28;20483;-56
2021/12/13 12:51:40;;;;;;;29.02;17.67;;;10.00;99.90;;;;;;5109521;28;20050;-57
2021/12/13 12:54:18;;;;;;;32.35;17.98;;;10.00;99.90;;;;;;5110883;28;20028;-56
2021/12/13 12:56:49;;;;;;;30.85;17.27;;;10.00;99.90;;;;;;5110916;28;20042;-57
2021/12/13 12:59:36;;;;;;;29.88;17.73;;;10.00;99.90;;;;;;5111025;28;20047;-57
2021/12/13 13:02:12;;;;;;;28.23;17.27;;;10.00;99.90;;;;;;5110981;28;20050;-57
2021/12/13 13:04:46;;;;;;;29.25;17.38;;;10.00;99.90;;;;;;5110428;28;20391;-57
2021/12/13 13:07:13;;;;;;;29.90;17.50;;;10.00;99.90;;;;;;5110976;28;20051;-57
2021/12/13 13:09:53;;;;;;;27.77;17.13;;;10.00;99.90;;;;;;5111161;28;20491;-57
2021/12/13 13:12:34;;;;;;;29.00;16.50;;;10.00;99.90;;;;;;5092456;28;20060;-58
2021/12/13 13:15:04;;;;;;;27.05;17.08;;;10.00;99.90;;;;;;5109600;28;20463;-56
2021/12/13 13:17:33;;;;;;;28.85;16.83;;;10.00;99.90;;;;;;5110782;28;20110;-57
2021/12/13 13:20:11;;;;;;;30.75;17.98;;;10.00;99.90;;;;;;5110622;28;20036;-57
2021/12/13 13:22:40;;;;;;;30.88;17.35;;;10.00;99.90;;;;;;5111109;28;20093;-56
2021/12/13 13:25:21;;;;;;;29.83;17.58;;;10.00;99.90;;;;;;5110697;28;20039;-58
2021/12/13 13:27:48;;;;;;;30.42;17.48;;;10.00;99.90;;;;;;5110927;28;20031;-57